createdAt,value
2022-08-10T00:02:49.585Z,95934
2022-08-10T00:06:14.995Z,95934
2022-08-10T00:09:49.976Z,95925
2022-08-10T00:13:05.803Z,95925
2022-08-10T00:16:31.141Z,95924
2022-08-10T00:20:02.311Z,95920
2022-08-10T00:23:21.892Z,95919
2022-08-10T00:27:50.271Z,95928
2022-08-10T00:30:12.683Z,95924
2022-08-10T00:33:38.113Z,95918
2022-08-10T00:37:03.499Z,95923
2022-08-10T00:40:35.390Z,95919
2022-08-10T00:43:54.272Z,95920
2022-08-10T00:47:21.376Z,95919
2022-08-10T00:50:45.051Z,95923
2022-08-10T00:54:10.486Z,95918
2022-08-10T00:57:35.874Z,95917
2022-08-10T01:01:01.361Z,95916
2022-08-10T01:04:36.094Z,95917
2022-08-10T01:07:52.077Z,95912
2022-08-10T01:12:27.866Z,95914
2022-08-10T01:14:42.816Z,95918
2022-08-10T01:18:08.162Z,95912
2022-08-10T01:21:33.500Z,95909
2022-08-10T01:24:58.848Z,95909
2022-08-10T01:28:24.178Z,95908
2022-08-10T01:31:49.588Z,95906
2022-08-10T01:35:14.981Z,95906
2022-08-10T01:38:40.348Z,95906
2022-08-10T01:42:05.729Z,95907
2022-08-10T01:45:45.390Z,95903
2022-08-10T01:48:56.479Z,95908
2022-08-10T01:52:21.844Z,95905
2022-08-10T01:55:47.158Z,95910
2022-08-10T01:59:12.494Z,95904
2022-08-10T02:02:37.849Z,95903
2022-08-10T02:06:03.209Z,95900
2022-08-10T02:09:28.588Z,95904
2022-08-10T02:12:53.940Z,95900
2022-08-10T02:16:19.286Z,95907
2022-08-10T02:19:44.674Z,95906
2022-08-10T02:23:10.090Z,95915
2022-08-10T02:26:35.417Z,95911
2022-08-10T02:30:00.800Z,95913
2022-08-10T02:33:26.125Z,95915
2022-08-10T02:36:51.450Z,95919
2022-08-10T02:42:19.265Z,95917
2022-08-10T02:45:25.259Z,95921
2022-08-10T02:47:07.590Z,95919
2022-08-10T02:50:32.946Z,95921
2022-08-10T02:53:58.359Z,95919
2022-08-10T02:57:23.713Z,95921
2022-08-10T03:00:49.059Z,95923
2022-08-10T03:04:14.350Z,95918
2022-08-10T03:07:42.653Z,95918
2022-08-10T03:11:05.042Z,95921
2022-08-10T03:14:30.405Z,95920
2022-08-10T03:17:57.376Z,95915
2022-08-10T03:21:21.094Z,95912
2022-08-10T03:24:46.446Z,95914
2022-08-10T03:28:11.770Z,95917
2022-08-10T03:31:40.101Z,95908
2022-08-10T03:35:02.506Z,95907
2022-08-10T03:38:28.097Z,95911
2022-08-10T03:41:54.211Z,95911
2022-08-10T03:45:18.800Z,95914
2022-08-10T03:48:48.956Z,95915
2022-08-10T03:52:09.629Z,95914
2022-08-10T03:56:27.798Z,95907
2022-08-10T03:59:00.353Z,95913
2022-08-10T04:02:51.961Z,95913
2022-08-10T04:05:51.081Z,95913
2022-08-10T04:09:16.446Z,95919
2022-08-10T04:12:42.496Z,95919
2022-08-10T04:16:07.811Z,95926
2022-08-10T04:19:33.178Z,95932
2022-08-10T04:22:58.506Z,95937
2022-08-10T04:26:23.817Z,95941
2022-08-10T04:29:49.148Z,95936
2022-08-10T04:33:14.494Z,95942
2022-08-10T04:36:39.825Z,95943
2022-08-10T04:40:05.153Z,95943
2022-08-10T04:43:30.476Z,95937
2022-08-10T04:46:58.137Z,95937
2022-08-10T04:50:21.141Z,95937
2022-08-10T04:54:03.573Z,95935
2022-08-10T04:57:11.894Z,95938
2022-08-10T05:00:37.299Z,95938
2022-08-10T05:04:33.046Z,95935
2022-08-10T05:07:27.884Z,95936
2022-08-10T05:10:53.233Z,95936
2022-08-10T05:14:18.542Z,95936
2022-08-10T05:18:03.158Z,95937
2022-08-10T05:21:09.243Z,95937
2022-08-10T05:24:34.573Z,95942
2022-08-10T05:28:03.014Z,95939
2022-08-10T05:31:25.225Z,95941
2022-08-10T05:34:50.575Z,95945
2022-08-10T05:38:15.912Z,95949
2022-08-10T05:41:44.845Z,95945
2022-08-10T05:45:06.653Z,95953
2022-08-10T05:48:41.236Z,95956
2022-08-10T05:51:58.151Z,95954
2022-08-10T05:55:23.486Z,95952
2022-08-10T05:58:48.835Z,95953
2022-08-10T06:02:32.261Z,95955
2022-08-10T06:05:39.507Z,95959
2022-08-10T06:09:04.885Z,95952
2022-08-10T06:12:31.074Z,95949
2022-08-10T06:15:55.448Z,95946
2022-08-10T06:19:20.814Z,95955
2022-08-10T06:22:46.103Z,95954
2022-08-10T06:26:14.822Z,95957
2022-08-10T06:29:36.733Z,95953
2022-08-10T06:33:01.981Z,95957
2022-08-10T06:36:27.251Z,95953
2022-08-10T06:39:52.527Z,95953
2022-08-10T06:43:17.775Z,95952
2022-08-10T06:46:46.490Z,95953
2022-08-10T06:50:08.706Z,95955
2022-08-10T06:53:51.908Z,95958
2022-08-10T06:57:17.205Z,95959
2022-08-10T07:00:24.166Z,95960
2022-08-10T07:03:49.388Z,95954
2022-08-10T07:07:14.707Z,95952
2022-08-10T07:10:41.463Z,95951
2022-08-10T07:14:14.832Z,95947
2022-08-10T07:17:30.645Z,95949
2022-08-10T07:21:19.089Z,95946
2022-08-10T07:25:08.584Z,95950
2022-08-10T07:29:06.156Z,95950
2022-08-10T07:32:35.699Z,95951
2022-08-10T07:36:17.379Z,95952
2022-08-10T07:40:04.720Z,95952
2022-08-10T07:43:54.395Z,95956
2022-08-10T07:47:46.484Z,95960
2022-08-10T07:56:48.771Z,95963
2022-08-10T08:05:10.810Z,95957
2022-08-10T08:08:36.121Z,95958
2022-08-10T08:12:01.397Z,95954
2022-08-10T08:16:18.905Z,95954
2022-08-10T08:19:09.787Z,95954
2022-08-10T08:24:03.953Z,95953
2022-08-10T08:26:35.857Z,95963
2022-08-10T08:30:01.158Z,95969
2022-08-10T08:33:58.404Z,95968
2022-08-10T08:38:30.050Z,95973
2022-08-10T08:40:48.984Z,95973
2022-08-10T08:44:14.319Z,95970
2022-08-10T08:48:02.437Z,95967
2022-08-10T08:51:08.359Z,95961
2022-08-10T08:54:32.802Z,95959
2022-08-10T08:57:55.519Z,95957
2022-08-10T09:01:20.836Z,95956
2022-08-10T09:04:46.105Z,95956
2022-08-10T09:08:11.395Z,95954
2022-08-10T09:11:36.683Z,95955
2022-08-10T09:15:01.963Z,95958
2022-08-10T09:18:27.281Z,95956
2022-08-10T09:21:56.772Z,95954
2022-08-10T09:25:17.878Z,95944
2022-08-10T09:28:43.160Z,95943
2022-08-10T09:33:05.776Z,95946
2022-08-10T09:36:17.827Z,95939
2022-08-10T09:38:59.116Z,95935
2022-08-10T09:42:24.423Z,95931
2022-08-10T09:45:49.727Z,95929
2022-08-10T09:49:16.148Z,95927
2022-08-10T09:52:40.328Z,95930
2022-08-10T09:56:16.581Z,95922
2022-08-10T09:59:59.767Z,95920
2022-08-10T10:02:56.393Z,95926
2022-08-10T10:06:21.606Z,95910
2022-08-10T10:10:05.016Z,95916
2022-08-10T10:13:41.825Z,95914
2022-08-10T10:17:00.405Z,95909
2022-08-10T10:20:26.448Z,95907
2022-08-10T10:24:15.771Z,95905
2022-08-10T10:27:17.688Z,95903
2022-08-10T10:30:44.312Z,95893
2022-08-10T10:34:12.789Z,95895
2022-08-10T10:38:00.583Z,95892
2022-08-10T10:41:03.411Z,95883
2022-08-10T10:44:28.711Z,95885
2022-08-10T10:47:54.000Z,95882
2022-08-10T10:51:19.301Z,95895
2022-08-10T10:54:44.638Z,95892
2022-08-10T10:58:09.955Z,95886
2022-08-10T11:01:35.292Z,95887
2022-08-10T11:05:04.660Z,95887
2022-08-10T11:08:30.811Z,95884
2022-08-10T11:12:01.042Z,95886
2022-08-10T11:15:21.511Z,95875
2022-08-10T11:18:46.804Z,95872
2022-08-10T11:22:15.901Z,95877
2022-08-10T11:25:37.381Z,95875
2022-08-10T11:29:02.689Z,95876
2022-08-10T11:32:28.090Z,95867
2022-08-10T11:36:00.531Z,95870
2022-08-10T11:39:25.848Z,95868
2022-08-10T11:43:02.896Z,95872
2022-08-10T11:46:29.027Z,95864
2022-08-10T11:49:54.326Z,95864
2022-08-10T11:53:24.611Z,95857
2022-08-10T11:56:50.093Z,95866
2022-08-10T12:00:15.428Z,95862
2022-08-10T12:03:40.773Z,95855
2022-08-10T12:08:55.350Z,95857
2022-08-10T12:10:31.435Z,95856
2022-08-10T12:14:18.181Z,95856
2022-08-10T12:17:22.075Z,95860
2022-08-10T12:20:47.372Z,95854
2022-08-10T12:24:12.693Z,95853
2022-08-10T12:27:37.971Z,95852
2022-08-10T12:31:03.293Z,95855
2022-08-10T12:34:28.608Z,95858
2022-08-10T12:37:53.899Z,95862
2022-08-10T12:41:19.208Z,95858
2022-08-10T12:44:44.532Z,95848
2022-08-10T12:48:09.858Z,95851
2022-08-10T12:51:35.149Z,95843
2022-08-10T12:55:00.436Z,95842
2022-08-10T12:58:58.546Z,95832
2022-08-10T13:02:07.088Z,95827
2022-08-10T13:05:18.863Z,95827
2022-08-10T13:08:45.868Z,95825
2022-08-10T13:12:34.761Z,95826
2022-08-10T13:15:48.718Z,95824
2022-08-10T13:19:03.961Z,95817
2022-08-10T13:22:30.252Z,95818
2022-08-10T13:25:55.658Z,95815
2022-08-10T13:29:22.101Z,95812
2022-08-10T13:32:46.666Z,95809
2022-08-10T13:36:12.768Z,95808
2022-08-10T13:39:57.550Z,95802
2022-08-10T13:43:03.775Z,95798
2022-08-10T13:46:30.395Z,95799
2022-08-10T13:49:55.733Z,95801
2022-08-10T13:53:21.053Z,95791
2022-08-10T13:56:46.285Z,95788
2022-08-10T14:00:33.184Z,95788
2022-08-10T14:03:36.875Z,95784
2022-08-10T14:07:02.104Z,95785
2022-08-10T14:11:01.617Z,95778
2022-08-10T14:13:52.725Z,95778
2022-08-10T14:17:18.051Z,95777
2022-08-10T14:20:43.270Z,95779
2022-08-10T14:24:08.566Z,95779
2022-08-10T14:28:01.698Z,95772
2022-08-10T15:04:50.632Z,95735
2022-08-10T15:08:15.917Z,95732
2022-08-10T15:12:12.578Z,95736
2022-08-10T15:15:06.467Z,95729
2022-08-10T15:18:31.820Z,95738
2022-08-10T15:22:01.492Z,95734
2022-08-10T15:25:24.571Z,95740
2022-08-10T15:29:22.605Z,95739
2022-08-10T15:32:12.921Z,95737
2022-08-10T15:35:38.176Z,95734
2022-08-10T15:39:03.493Z,95738
2022-08-10T15:42:28.787Z,95736
2022-08-10T15:45:54.099Z,95732
2022-08-10T15:49:19.437Z,95731
2022-08-10T15:53:00.309Z,95729
2022-08-10T15:56:10.015Z,95725
2022-08-10T15:59:35.326Z,95718
2022-08-10T16:03:00.706Z,95717
2022-08-10T16:06:26.029Z,95712
2022-08-10T16:10:11.433Z,95713
2022-08-10T16:13:51.280Z,95708
2022-08-10T16:16:43.903Z,95702
2022-08-10T16:20:09.228Z,95705
2022-08-10T16:23:34.553Z,95703
2022-08-10T16:26:59.883Z,95701
2022-08-10T16:30:25.255Z,95694
2022-08-10T16:33:53.245Z,95695
2022-08-10T16:37:16.027Z,95687
2022-08-10T16:40:41.359Z,95696
2022-08-10T16:44:06.621Z,95694
2022-08-10T16:47:32.027Z,95688
2022-08-10T16:50:57.331Z,95692
2022-08-10T16:54:26.973Z,95694
2022-08-10T16:57:47.951Z,95693
2022-08-10T17:01:13.341Z,95692
2022-08-10T17:04:38.612Z,95691
2022-08-10T17:08:03.962Z,95687
2022-08-10T17:11:29.514Z,95686
2022-08-10T17:15:09.930Z,95691
2022-08-10T17:18:30.772Z,95689
2022-08-10T17:21:57.326Z,95692
2022-08-10T17:25:22.606Z,95698
2022-08-10T17:28:47.922Z,95694
2022-08-10T17:32:13.232Z,95697
2022-08-10T17:35:38.695Z,95692
2022-08-10T17:39:03.887Z,95692
2022-08-10T17:42:29.220Z,95691
2022-08-10T17:45:54.539Z,95687
2022-08-10T17:49:19.943Z,95688
2022-08-10T17:52:45.273Z,95685
2022-08-10T17:56:10.754Z,95686
2022-08-10T17:59:36.080Z,95687
2022-08-10T18:03:01.380Z,95690
2022-08-10T18:06:26.673Z,95679
2022-08-10T18:09:52.068Z,95684
2022-08-10T18:13:17.309Z,95684
2022-08-10T18:16:43.786Z,95692
2022-08-10T18:20:07.986Z,95695
2022-08-10T18:23:33.344Z,95701
2022-08-10T18:26:58.657Z,95699
2022-08-10T18:30:24.037Z,95703
2022-08-10T18:33:49.349Z,95706
2022-08-10T18:37:18.125Z,95707
2022-08-10T18:40:40.009Z,95706
2022-08-10T18:44:07.709Z,95712
2022-08-10T18:47:30.773Z,95705
2022-08-10T18:50:56.085Z,95704
2022-08-10T18:54:24.174Z,95714
2022-08-10T18:57:46.791Z,95719
2022-08-10T19:01:12.198Z,95721
2022-08-10T19:04:37.439Z,95724
2022-08-10T19:08:02.762Z,95719
2022-08-10T19:11:28.136Z,95723
2022-08-10T19:14:53.489Z,95725
2022-08-10T19:18:18.814Z,95722
2022-08-10T19:21:44.167Z,95728
2022-08-10T19:25:09.533Z,95728
2022-08-10T19:28:34.831Z,95724
2022-08-10T19:32:00.173Z,95727
2022-08-10T19:35:25.509Z,95724
2022-08-10T19:38:51.222Z,95723
2022-08-10T19:42:16.156Z,95724
2022-08-10T19:45:55.645Z,95725
2022-08-10T19:49:06.792Z,95721
2022-08-10T19:52:32.115Z,95724
2022-08-10T19:56:01.890Z,95728
2022-08-10T20:00:02.280Z,95736
2022-08-10T20:02:48.001Z,95740
2022-08-10T20:06:18.689Z,95742
2022-08-10T20:09:38.594Z,95736
2022-08-10T20:13:03.838Z,95744
2022-08-10T20:16:29.149Z,95741
2022-08-10T20:19:55.168Z,95741
2022-08-10T20:23:19.759Z,95738
2022-08-10T20:26:45.056Z,95740
2022-08-10T20:30:10.344Z,95738
2022-08-10T20:33:35.633Z,95734
2022-08-10T20:37:00.943Z,95735
2022-08-10T20:40:26.260Z,95736
2022-08-10T20:43:51.581Z,95741
2022-08-10T20:47:16.860Z,95740
2022-08-10T20:50:42.151Z,95737
2022-08-10T20:54:07.449Z,95736
2022-08-10T20:57:56.023Z,95735
2022-08-10T21:00:58.115Z,95736
2022-08-10T21:04:23.321Z,95738
2022-08-10T21:08:03.554Z,95738
2022-08-10T21:11:13.940Z,95731
2022-08-10T21:14:39.229Z,95728
2022-08-10T21:18:04.571Z,95725
2022-08-10T21:21:30.542Z,95728
2022-08-10T21:24:55.142Z,95727
2022-08-10T21:28:28.983Z,95729
2022-08-10T21:31:45.701Z,95728
2022-08-10T21:35:10.984Z,95727
2022-08-10T21:38:36.288Z,95729
2022-08-10T21:42:01.590Z,95727
2022-08-10T21:45:47.517Z,95728
2022-08-10T21:48:57.378Z,95730
2022-08-10T21:52:17.472Z,95730
2022-08-10T21:55:56.313Z,95726
2022-08-10T21:59:08.048Z,95728
2022-08-10T22:02:33.298Z,95724
2022-08-10T22:05:58.577Z,95722
2022-08-10T22:09:23.843Z,95729
2022-08-10T22:12:49.116Z,95729
2022-08-10T22:16:14.422Z,95728
2022-08-10T22:19:39.688Z,95732
2022-08-10T22:26:30.184Z,95726
2022-08-10T22:29:55.454Z,95722
2022-08-10T22:31:26.774Z,95727
2022-08-10T22:33:20.711Z,95719
2022-08-10T22:36:45.929Z,95718
2022-08-10T22:40:13.740Z,95717
2022-08-10T22:43:36.881Z,95724
2022-08-10T22:47:01.597Z,95720
2022-08-10T22:50:26.819Z,95722
2022-08-10T22:53:52.045Z,95725
2022-08-10T22:57:17.261Z,95723
2022-08-10T23:00:42.493Z,95726
2022-08-10T23:04:07.748Z,95726
2022-08-10T23:07:32.988Z,95722
2022-08-10T23:10:58.245Z,95728
2022-08-10T23:14:23.493Z,95722
2022-08-10T23:18:01.351Z,95723
2022-08-10T23:21:14.013Z,95718
2022-08-10T23:24:39.257Z,95712
2022-08-10T23:28:08.288Z,95713
2022-08-10T23:31:50.515Z,95718
2022-08-10T23:36:04.735Z,95717
2022-08-10T23:38:20.249Z,95715
2022-08-10T23:41:46.678Z,95716
2022-08-10T23:45:10.730Z,95714
2022-08-10T23:48:35.991Z,95706
2022-08-10T23:52:01.224Z,95706
2022-08-10T23:55:26.488Z,95698
2022-08-10T23:58:51.754Z,95703
